createdAt,value
2018-07-23T00:02:24.334Z,5.33
2018-07-23T00:04:54.841Z,6.17
2018-07-23T00:07:25.351Z,5.53
2018-07-23T00:09:55.846Z,5.70
2018-07-23T00:12:27.356Z,5.13
2018-07-23T00:14:57.967Z,5.70
2018-07-23T00:17:28.412Z,5.53
2018-07-23T00:19:58.826Z,5.83
2018-07-23T00:22:29.392Z,5.40
2018-07-23T00:24:59.781Z,9.03
2018-07-23T00:27:30.903Z,5.07
2018-07-23T00:30:01.331Z,4.93
2018-07-23T00:32:31.717Z,5.43
2018-07-23T00:35:02.178Z,5.87
2018-07-23T00:37:32.771Z,6.20
2018-07-23T00:40:03.393Z,7.10
2018-07-23T00:42:33.888Z,6.33
2018-07-23T00:45:04.809Z,5.70
2018-07-23T00:47:35.041Z,5.87
2018-07-23T00:50:05.778Z,5.93
2018-07-23T00:52:36.927Z,6.67
2018-07-23T00:55:07.532Z,8.10
2018-07-23T00:57:37.970Z,6.47
2018-07-23T01:00:08.398Z,6.50
2018-07-23T01:02:38.874Z,5.83
2018-07-23T01:05:09.339Z,4.97
2018-07-23T01:07:40.299Z,5.80
2018-07-23T01:10:10.923Z,6.23
2018-07-23T01:12:41.226Z,5.93
2018-07-23T01:15:11.505Z,5.57
2018-07-23T01:17:41.959Z,5.83
2018-07-23T01:20:12.443Z,5.83
2018-07-23T01:22:42.743Z,6.40
2018-07-23T01:25:13.443Z,6.90
2018-07-23T01:27:43.797Z,5.83
2018-07-23T01:30:14.344Z,6.33
2018-07-23T01:32:44.911Z,6.13
2018-07-23T01:35:15.281Z,5.53
2018-07-23T01:37:46.120Z,6.40
2018-07-23T01:40:16.428Z,6.40
2018-07-23T01:42:46.820Z,6.20
2018-07-23T01:45:17.304Z,5.87
2018-07-23T01:47:47.965Z,6.23
2018-07-23T01:50:18.355Z,6.57
2018-07-23T01:52:48.903Z,6.53
2018-07-23T01:55:19.274Z,6.40
2018-07-23T01:57:49.902Z,5.73
2018-07-23T02:00:21.102Z,6.50
2018-07-23T02:02:51.424Z,6.40
2018-07-23T02:05:22.144Z,5.80
2018-07-23T02:07:52.693Z,6.63
2018-07-23T02:10:23.236Z,6.20
2018-07-23T02:12:53.780Z,6.67
2018-07-23T02:15:24.482Z,6.83
2018-07-23T02:17:55.150Z,6.77
2018-07-23T02:20:25.850Z,6.33
2018-07-23T02:22:57.173Z,6.43
2018-07-23T02:25:27.689Z,5.80
2018-07-23T02:27:58.304Z,5.53
2018-07-23T02:30:28.722Z,7.03
2018-07-23T02:32:59.305Z,7.00
2018-07-23T02:35:29.677Z,6.27
2018-07-23T02:38:00.246Z,5.23
2018-07-23T02:40:30.762Z,6.37
2018-07-23T02:43:01.167Z,5.97
2018-07-23T02:45:31.467Z,6.50
2018-07-23T02:48:01.986Z,6.60
2018-07-23T02:50:32.383Z,6.20
2018-07-23T02:53:02.934Z,6.63
2018-07-23T02:55:33.431Z,6.43
2018-07-23T02:58:04.188Z,6.30
2018-07-23T03:00:34.984Z,5.87
2018-07-23T03:03:05.458Z,8.03
2018-07-23T03:05:36.006Z,7.37
2018-07-23T03:08:06.845Z,5.67
2018-07-23T03:10:37.230Z,6.00
2018-07-23T03:13:08.059Z,6.17
2018-07-23T03:15:38.514Z,6.70
2018-07-23T03:18:09.148Z,6.30
2018-07-23T03:20:39.755Z,6.53
2018-07-23T03:23:10.251Z,7.07
2018-07-23T03:25:40.645Z,6.47
2018-07-23T03:28:11.124Z,6.70
2018-07-23T03:30:41.530Z,6.60
2018-07-23T03:33:12.143Z,8.33
2018-07-23T03:35:42.722Z,7.77
2018-07-23T03:38:13.168Z,6.67
2018-07-23T03:40:43.695Z,5.83
2018-07-23T03:43:14.221Z,6.40
2018-07-23T03:45:44.809Z,6.63
2018-07-23T03:48:15.328Z,6.23
2018-07-23T03:50:45.885Z,5.93
2018-07-23T03:53:16.454Z,6.00
2018-07-23T03:55:47.133Z,5.77
2018-07-23T03:58:17.586Z,5.97
2018-07-23T04:00:48.201Z,5.93
2018-07-23T04:03:18.921Z,6.97
2018-07-23T04:05:49.319Z,6.43
2018-07-23T04:08:19.822Z,6.20
2018-07-23T04:10:50.464Z,6.37
2018-07-23T04:13:20.905Z,6.03
2018-07-23T04:15:51.313Z,6.57
2018-07-23T04:18:21.780Z,6.53
2018-07-23T04:20:52.088Z,7.27
2018-07-23T04:23:22.696Z,6.40
2018-07-23T04:25:53.272Z,5.93
2018-07-23T04:28:23.638Z,6.00
2018-07-23T04:30:54.007Z,7.07
2018-07-23T04:33:24.385Z,6.50
2018-07-23T04:35:54.896Z,6.60
2018-07-23T04:38:25.423Z,7.63
2018-07-23T04:40:56.789Z,6.43
2018-07-23T04:43:27.256Z,5.73
2018-07-23T04:45:57.912Z,6.90
2018-07-23T04:48:28.348Z,6.63
2018-07-23T04:50:58.688Z,6.83
2018-07-23T04:53:29.238Z,6.87
2018-07-23T04:56:00.351Z,17.77
2018-07-23T04:58:30.963Z,6.57
2018-07-23T05:01:01.484Z,7.77
2018-07-23T05:03:31.902Z,7.97
2018-07-23T05:06:02.289Z,6.80
2018-07-23T05:08:32.647Z,7.27
2018-07-23T05:11:03.149Z,6.07
2018-07-23T05:13:33.531Z,7.47
2018-07-23T05:16:04.162Z,7.77
2018-07-23T05:18:34.598Z,6.60
2018-07-23T05:21:05.374Z,6.97
2018-07-23T05:23:35.771Z,11.47
2018-07-23T05:26:06.300Z,8.40
2018-07-23T05:28:36.734Z,6.37
2018-07-23T05:31:07.072Z,7.27
2018-07-23T05:33:37.710Z,6.27
2018-07-23T05:36:08.251Z,5.93
2018-07-23T05:38:38.608Z,6.13
2018-07-23T05:41:09.049Z,5.27
2018-07-23T05:43:39.652Z,5.70
2018-07-23T05:46:10.146Z,5.80
2018-07-23T05:48:40.644Z,7.40
2018-07-23T05:51:11.392Z,6.37
2018-07-23T05:53:42.058Z,7.30
2018-07-23T05:56:12.424Z,6.30
2018-07-23T05:58:47.179Z,6.47
2018-07-23T06:01:20.107Z,6.60
2018-07-23T06:03:50.576Z,5.90
2018-07-23T06:06:21.195Z,6.33
2018-07-23T06:08:51.568Z,7.03
2018-07-23T06:11:21.912Z,6.03
2018-07-23T06:13:52.405Z,5.97
2018-07-23T06:16:22.900Z,6.33
2018-07-23T06:18:53.470Z,6.30
2018-07-23T06:21:23.946Z,6.60
2018-07-23T06:23:54.500Z,7.57
2018-07-23T06:26:25.000Z,8.33
2018-07-23T06:28:55.395Z,6.10
2018-07-23T06:31:25.969Z,6.30
2018-07-23T06:33:56.383Z,6.17
2018-07-23T06:36:27.024Z,5.83
2018-07-23T06:38:57.422Z,5.60
2018-07-23T06:41:27.889Z,5.80
2018-07-23T06:43:58.260Z,5.80
2018-07-23T06:46:28.886Z,6.83
2018-07-23T06:48:59.331Z,6.93
2018-07-23T06:51:29.682Z,7.47
2018-07-23T06:54:00.091Z,6.57
2018-07-23T06:56:30.736Z,6.83
2018-07-23T06:59:01.335Z,6.67
2018-07-23T07:01:32.168Z,6.07
2018-07-23T07:04:02.641Z,5.97
2018-07-23T07:06:33.020Z,6.27
2018-07-23T07:09:03.653Z,6.80
2018-07-23T07:11:36.129Z,7.27
2018-07-23T07:14:07.010Z,6.60
2018-07-23T07:16:37.512Z,6.13
2018-07-23T07:19:08.018Z,7.07
2018-07-23T07:21:38.374Z,6.03
2018-07-23T07:24:08.824Z,6.57
2018-07-23T07:26:39.614Z,6.50
2018-07-23T07:29:10.338Z,7.00
2018-07-23T07:31:40.814Z,7.30
2018-07-23T07:34:11.333Z,7.07
2018-07-23T07:36:41.822Z,5.80
2018-07-23T07:39:13.542Z,5.10
2018-07-23T07:41:44.134Z,6.27
2018-07-23T07:44:14.529Z,5.77
2018-07-23T07:46:45.121Z,7.20
2018-07-23T07:49:15.598Z,6.40
2018-07-23T07:51:45.941Z,5.63
2018-07-23T07:54:16.716Z,6.17
2018-07-23T07:56:47.046Z,6.13
2018-07-23T07:59:17.602Z,7.00
2018-07-23T08:01:48.096Z,7.07
2018-07-23T08:04:18.457Z,7.70
2018-07-23T08:06:48.906Z,6.17
2018-07-23T08:09:19.420Z,7.60
2018-07-23T08:11:50.037Z,7.00
2018-07-23T08:14:21.419Z,6.90
2018-07-23T08:16:51.786Z,5.87
2018-07-23T08:19:22.128Z,5.87
2018-07-23T08:21:52.743Z,5.47
2018-07-23T08:24:23.225Z,6.47
2018-07-23T08:26:53.639Z,5.80
2018-07-23T08:29:24.260Z,5.83
2018-07-23T08:31:54.714Z,5.10
2018-07-23T08:34:25.305Z,5.03
2018-07-23T08:36:55.827Z,5.20
2018-07-23T08:39:26.286Z,5.23
2018-07-23T08:41:56.802Z,5.70
2018-07-23T08:44:27.261Z,5.60
2018-07-23T08:46:57.778Z,4.67
2018-07-23T08:49:28.165Z,5.60
2018-07-23T08:51:58.420Z,5.33
2018-07-23T08:54:28.854Z,5.40
2018-07-23T08:56:59.525Z,5.30
2018-07-23T08:59:29.996Z,5.00
2018-07-23T09:02:00.590Z,5.40
2018-07-23T09:04:30.957Z,5.20
2018-07-23T09:07:01.421Z,5.43
2018-07-23T09:09:32.107Z,5.73
2018-07-23T09:12:02.605Z,5.10
2018-07-23T09:14:34.062Z,5.53
2018-07-23T09:17:04.373Z,5.43
2018-07-23T09:19:34.998Z,4.87
2018-07-23T09:22:05.583Z,5.40
2018-07-23T09:24:36.060Z,5.10
2018-07-23T09:27:06.626Z,5.07
2018-07-23T09:29:37.008Z,5.30
2018-07-23T09:32:07.689Z,5.83
2018-07-23T09:34:40.116Z,6.43
2018-07-23T09:37:10.736Z,5.40
2018-07-23T09:39:41.161Z,5.37
2018-07-23T09:42:11.417Z,5.33
2018-07-23T09:44:42.227Z,4.87
2018-07-23T09:47:12.812Z,4.70
2018-07-23T09:49:43.234Z,5.90
2018-07-23T09:52:13.781Z,5.27
2018-07-23T09:54:44.280Z,5.63
2018-07-23T09:57:14.642Z,5.60
2018-07-23T09:59:44.983Z,5.77
2018-07-23T10:02:15.391Z,6.43
2018-07-23T10:04:46.405Z,5.13
2018-07-23T10:07:17.223Z,6.63
2018-07-23T10:09:48.133Z,5.70
2018-07-23T10:12:18.562Z,5.90
2018-07-23T10:14:48.986Z,6.10
2018-07-23T10:17:19.543Z,6.33
2018-07-23T10:19:50.330Z,6.83
2018-07-23T10:22:20.849Z,5.97
2018-07-23T10:24:51.212Z,6.37
2018-07-23T10:27:21.795Z,6.20
2018-07-23T10:29:52.125Z,6.17
2018-07-23T10:32:22.762Z,6.37
2018-07-23T10:34:53.212Z,7.07
2018-07-23T10:37:23.870Z,6.50
2018-07-23T10:39:54.350Z,6.27
2018-07-23T10:42:25.298Z,6.17
2018-07-23T10:44:55.980Z,6.90
2018-07-23T10:47:26.365Z,7.13
2018-07-23T10:49:56.935Z,7.43
2018-07-23T10:52:27.305Z,7.03
2018-07-23T10:54:57.627Z,6.63
2018-07-23T10:57:28.312Z,7.60
2018-07-23T10:59:58.780Z,6.47
2018-07-23T11:02:29.356Z,6.93
2018-07-23T11:04:59.738Z,6.47
2018-07-23T11:07:30.139Z,7.23
2018-07-23T11:10:00.474Z,7.80
2018-07-23T11:12:31.032Z,8.03
2018-07-23T11:15:01.412Z,8.67
2018-07-23T11:17:32.187Z,8.07
2018-07-23T11:20:02.791Z,7.03
2018-07-23T11:22:33.421Z,7.07
2018-07-23T11:25:38.323Z,7.13
2018-07-23T11:27:35.189Z,7.53
2018-07-23T11:30:06.273Z,7.97
2018-07-23T11:32:37.149Z,6.97
2018-07-23T11:35:07.806Z,7.57
2018-07-23T11:37:38.299Z,6.67
2018-07-23T11:40:09.027Z,6.73
2018-07-23T11:42:39.407Z,6.03
2018-07-23T11:45:09.936Z,7.90
2018-07-23T11:47:40.901Z,7.77
2018-07-23T11:50:11.628Z,7.83
2018-07-23T11:52:42.088Z,6.20
2018-07-23T11:55:12.573Z,5.67
2018-07-23T11:57:42.991Z,6.00
2018-07-23T12:00:13.438Z,5.70
2018-07-23T12:02:43.965Z,4.33
2018-07-23T12:05:14.496Z,4.53
2018-07-23T12:07:45.019Z,4.50
2018-07-23T12:10:15.558Z,3.80
2018-07-23T12:12:46.034Z,5.20
2018-07-23T12:15:16.493Z,5.13
2018-07-23T12:17:46.911Z,3.80
2018-07-23T12:20:17.402Z,3.90
2018-07-23T12:22:48.063Z,5.20
2018-07-23T12:25:18.598Z,5.20
2018-07-23T12:27:49.087Z,6.70
2018-07-23T12:30:19.739Z,5.10
2018-07-23T12:32:50.085Z,4.13
2018-07-23T12:35:20.391Z,5.60
2018-07-23T12:37:50.700Z,4.53
2018-07-23T12:40:21.674Z,4.13
2018-07-23T12:42:52.258Z,3.30
2018-07-23T12:45:23.060Z,4.10
2018-07-23T12:47:53.919Z,3.30
2018-07-23T12:50:24.323Z,4.37
2018-07-23T12:52:54.913Z,4.33
2018-07-23T12:55:25.494Z,2.90
2018-07-23T12:57:55.950Z,3.30
2018-07-23T13:00:26.350Z,2.67
2018-07-23T13:02:56.700Z,2.23
2018-07-23T13:05:31.546Z,2.50
2018-07-23T13:08:03.807Z,3.10
2018-07-23T13:10:34.502Z,3.10
2018-07-23T13:13:05.014Z,2.73
2018-07-23T13:15:35.480Z,2.80
2018-07-23T13:18:05.942Z,3.07
2018-07-23T13:20:36.390Z,3.50
2018-07-23T13:23:06.873Z,3.50
2018-07-23T13:25:37.273Z,3.60
2018-07-23T13:28:07.985Z,4.07
2018-07-23T13:30:38.448Z,4.07
2018-07-23T13:33:08.850Z,3.27
2018-07-23T13:35:39.400Z,4.67
2018-07-23T13:38:09.946Z,3.80
2018-07-23T13:40:40.384Z,3.97
2018-07-23T13:43:10.742Z,4.17
2018-07-23T13:45:41.082Z,8.40
2018-07-23T13:48:12.100Z,5.33
2018-07-23T13:50:42.674Z,4.50
2018-07-23T13:53:13.505Z,3.90
2018-07-23T13:55:43.887Z,5.57
2018-07-23T13:58:14.463Z,3.30
2018-07-23T14:00:45.290Z,4.33
2018-07-23T14:03:15.782Z,5.23
2018-07-23T14:05:46.280Z,7.07
2018-07-23T14:08:17.166Z,5.50
2018-07-23T14:10:47.599Z,6.27
2018-07-23T14:13:18.460Z,5.23
2018-07-23T14:15:49.511Z,5.70
2018-07-23T14:18:20.042Z,6.13
2018-07-23T14:20:50.385Z,4.70
2018-07-23T14:23:20.930Z,4.47
2018-07-23T14:25:52.012Z,3.27
2018-07-23T14:28:22.656Z,3.37
2018-07-23T14:30:53.330Z,3.50
2018-07-23T14:33:23.801Z,4.40
2018-07-23T14:35:54.192Z,3.00
2018-07-23T14:38:24.962Z,3.53
2018-07-23T14:40:55.326Z,3.53
2018-07-23T14:43:25.754Z,3.83
2018-07-23T14:45:56.299Z,4.70
2018-07-23T14:48:27.459Z,4.73
2018-07-23T14:50:58.104Z,5.23
2018-07-23T14:53:28.481Z,4.70
2018-07-23T14:55:59.597Z,5.00
2018-07-23T14:58:30.027Z,4.60
2018-07-23T15:01:00.296Z,5.10
2018-07-23T15:03:30.756Z,5.77
2018-07-23T15:06:01.181Z,5.40
2018-07-23T15:08:31.849Z,5.77
2018-07-23T15:11:02.305Z,5.47
2018-07-23T15:13:32.661Z,4.70
2018-07-23T15:16:03.194Z,4.87
2018-07-23T15:18:33.642Z,4.30
2018-07-23T15:21:04.590Z,4.50
2018-07-23T15:23:35.284Z,5.17
2018-07-23T15:26:06.061Z,4.13
2018-07-23T15:28:36.573Z,4.40
2018-07-23T15:31:07.051Z,4.00
2018-07-23T15:33:37.455Z,3.10
2018-07-23T15:36:08.015Z,3.30
2018-07-23T15:38:38.475Z,3.03
2018-07-23T15:41:09.940Z,2.77
2018-07-23T15:43:40.401Z,4.80
2018-07-23T15:46:11.700Z,2.63
2018-07-23T15:48:42.521Z,2.33
2018-07-23T15:51:13.174Z,2.50
2018-07-23T15:53:43.547Z,2.47
2018-07-23T15:56:14.128Z,2.37
2018-07-23T15:58:44.494Z,2.00
2018-07-23T16:01:14.861Z,3.40
2018-07-23T16:03:45.159Z,2.03
2018-07-23T16:06:17.787Z,2.30
2018-07-23T16:08:49.395Z,1.70
2018-07-23T16:11:19.981Z,3.40
2018-07-23T16:13:50.555Z,2.10
2018-07-23T16:16:20.913Z,1.67
2018-07-23T16:18:51.584Z,1.47
2018-07-23T16:21:22.562Z,1.83
2018-07-23T16:23:53.134Z,1.87
2018-07-23T16:26:23.574Z,2.10
2018-07-23T16:28:54.345Z,8.17
2018-07-23T16:31:24.762Z,2.93
2018-07-23T16:33:55.246Z,1.80
2018-07-23T16:36:25.821Z,1.60
2018-07-23T16:38:58.203Z,2.73
2018-07-23T16:41:30.845Z,2.10
2018-07-23T16:44:01.635Z,2.60
2018-07-23T16:46:32.176Z,2.03
2018-07-23T16:49:02.448Z,2.10
2018-07-23T16:51:32.797Z,2.43
2018-07-23T16:54:03.549Z,2.43
2018-07-23T16:56:33.856Z,2.63
2018-07-23T16:59:04.468Z,5.10
2018-07-23T17:01:34.952Z,2.20
2018-07-23T17:04:05.406Z,2.83
2018-07-23T17:06:35.793Z,1.97
2018-07-23T17:09:09.461Z,3.20
2018-07-23T17:11:39.851Z,2.40
2018-07-23T17:14:10.304Z,2.53
2018-07-23T17:16:40.691Z,2.30
2018-07-23T17:19:11.112Z,1.83
2018-07-23T17:21:41.458Z,2.17
2018-07-23T17:24:11.820Z,1.97
2018-07-23T17:26:42.489Z,1.83
2018-07-23T17:29:13.073Z,2.20
2018-07-23T17:31:44.440Z,2.40
2018-07-23T17:34:15.072Z,3.80
2018-07-23T17:36:46.513Z,3.43
2018-07-23T17:39:17.136Z,4.40
2018-07-23T17:41:47.401Z,3.00
2018-07-23T17:44:18.728Z,2.73
2018-07-23T17:46:49.069Z,2.20
2018-07-23T17:49:19.433Z,2.10
2018-07-23T17:51:49.857Z,3.03
2018-07-23T17:54:20.268Z,2.93
2018-07-23T17:56:50.835Z,4.40
2018-07-23T17:59:21.270Z,3.20
2018-07-23T18:01:51.769Z,4.80
2018-07-23T18:04:22.290Z,3.00
2018-07-23T18:06:52.582Z,5.40
2018-07-23T18:09:23.204Z,6.57
2018-07-23T18:11:53.757Z,6.60
2018-07-23T18:14:24.079Z,4.13
2018-07-23T18:16:54.732Z,6.23
2018-07-23T18:19:25.687Z,5.00
2018-07-23T18:21:56.502Z,4.47
2018-07-23T18:24:26.854Z,3.50
2018-07-23T18:26:57.563Z,4.00
2018-07-23T18:29:28.116Z,3.37
2018-07-23T18:31:58.742Z,6.73
2018-07-23T18:34:29.201Z,12.77
2018-07-23T18:36:59.712Z,6.00
2018-07-23T18:39:29.973Z,6.73
2018-07-23T18:42:00.558Z,3.77
2018-07-23T18:44:30.924Z,7.10
2018-07-23T18:47:01.360Z,9.93
2018-07-23T18:49:44.475Z,9.13
2018-07-23T18:52:15.423Z,5.30
2018-07-23T18:54:47.880Z,5.30
2018-07-23T18:57:18.368Z,4.20
2018-07-23T18:59:48.873Z,4.57
2018-07-23T19:02:20.516Z,3.33
2018-07-23T19:04:51.053Z,3.60
2018-07-23T19:07:21.729Z,4.27
2018-07-23T19:09:52.164Z,3.30
2018-07-23T19:12:22.672Z,4.43
2018-07-23T19:14:53.054Z,12.47
2018-07-23T19:17:23.596Z,3.43
2018-07-23T19:19:54.049Z,4.00
2018-07-23T19:22:24.599Z,3.87
2018-07-23T19:24:54.912Z,3.23
2018-07-23T19:27:25.238Z,4.03
2018-07-23T19:29:55.681Z,4.30
2018-07-23T19:32:26.046Z,3.83
2018-07-23T19:34:56.451Z,4.67
2018-07-23T19:37:26.861Z,5.43
2018-07-23T19:39:57.240Z,5.73
2018-07-23T19:42:27.957Z,5.50
2018-07-23T19:44:58.248Z,4.73
2018-07-23T19:47:28.798Z,6.53
2018-07-23T19:49:59.128Z,5.50
2018-07-23T19:52:29.480Z,4.73
2018-07-23T19:55:00.075Z,4.40
2018-07-23T19:57:30.585Z,3.70
2018-07-23T20:00:00.927Z,5.07
2018-07-23T20:02:31.524Z,4.50
2018-07-23T20:05:01.919Z,4.67
2018-07-23T20:07:32.251Z,4.20
2018-07-23T20:10:03.338Z,5.63
2018-07-23T20:12:33.723Z,4.10
2018-07-23T20:15:04.349Z,4.23
2018-07-23T20:17:34.938Z,4.93
2018-07-23T20:20:05.889Z,4.30
2018-07-23T20:22:36.282Z,3.70
2018-07-23T20:25:06.869Z,4.40
2018-07-23T20:27:37.353Z,4.63
2018-07-23T20:30:07.790Z,4.77
2018-07-23T20:32:38.330Z,4.63
2018-07-23T20:35:09.168Z,4.90
2018-07-23T20:37:39.645Z,6.00
2018-07-23T20:40:10.088Z,6.10
2018-07-23T20:42:40.499Z,5.40
2018-07-23T20:45:11.577Z,4.67
2018-07-23T20:47:42.713Z,4.10
2018-07-23T20:50:13.105Z,3.30
2018-07-23T20:52:43.386Z,3.83
2018-07-23T20:55:13.850Z,3.53
2018-07-23T20:57:44.181Z,3.50
2018-07-23T21:00:14.674Z,4.20
2018-07-23T21:02:45.077Z,3.30
2018-07-23T21:05:16.213Z,4.20
2018-07-23T21:07:46.491Z,4.07
2018-07-23T21:10:16.880Z,4.33
2018-07-23T21:12:47.179Z,3.30
2018-07-23T21:15:18.032Z,4.73
2018-07-23T21:17:48.247Z,4.23
2018-07-23T21:20:19.672Z,4.37
2018-07-23T21:22:50.093Z,4.83
2018-07-23T21:25:21.444Z,3.93
2018-07-23T21:27:52.317Z,4.07
2018-07-23T21:30:22.912Z,4.03
2018-07-23T21:32:54.151Z,4.77
2018-07-23T21:35:25.264Z,3.90
2018-07-23T21:37:55.821Z,4.10
2018-07-23T21:40:26.311Z,4.10
2018-07-23T21:42:56.734Z,4.90
2018-07-23T21:45:27.094Z,5.00
2018-07-23T21:47:57.492Z,5.53
2018-07-23T21:50:27.966Z,5.60
2018-07-23T21:52:58.277Z,7.33
2018-07-23T21:55:28.760Z,7.00
2018-07-23T21:57:59.319Z,7.00
2018-07-23T22:00:31.017Z,7.00
2018-07-23T22:03:01.623Z,7.20
2018-07-23T22:05:32.597Z,7.40
2018-07-23T22:08:02.970Z,7.67
2018-07-23T22:10:33.844Z,6.90
2018-07-23T22:13:04.661Z,7.17
2018-07-23T22:15:35.165Z,7.07
2018-07-23T22:18:06.598Z,7.23
2018-07-23T22:20:37.370Z,8.23
2018-07-23T22:23:08.100Z,7.10
2018-07-23T22:25:38.830Z,7.93
2018-07-23T22:28:09.309Z,7.07
2018-07-23T22:30:39.825Z,8.47
2018-07-23T22:33:10.231Z,9.37
2018-07-23T22:35:41.043Z,8.40
2018-07-23T22:38:11.270Z,9.23
2018-07-23T22:40:41.728Z,9.37
2018-07-23T22:43:11.994Z,9.50
2018-07-23T22:45:42.682Z,9.93
2018-07-23T22:48:13.393Z,10.30
2018-07-23T22:50:43.905Z,10.93
2018-07-23T22:53:14.237Z,11.20
2018-07-23T22:55:44.438Z,10.70
2018-07-23T22:58:15.080Z,11.63
2018-07-23T23:00:45.661Z,11.43
2018-07-23T23:03:15.995Z,11.40
2018-07-23T23:05:46.513Z,11.00
2018-07-23T23:08:17.151Z,10.43
2018-07-23T23:10:47.723Z,11.10
2018-07-23T23:13:18.186Z,11.07
2018-07-23T23:15:48.711Z,11.80
2018-07-23T23:18:19.010Z,10.80
2018-07-23T23:20:49.511Z,11.10
2018-07-23T23:23:19.932Z,10.77
2018-07-23T23:25:50.282Z,11.03
2018-07-23T23:28:21.009Z,10.43
2018-07-23T23:30:51.432Z,10.87
2018-07-23T23:33:21.992Z,11.67
2018-07-23T23:35:52.347Z,10.87
2018-07-23T23:38:23.243Z,11.47
2018-07-23T23:40:53.560Z,10.87
2018-07-23T23:43:24.109Z,11.37
2018-07-23T23:45:54.396Z,11.27
2018-07-23T23:48:24.850Z,11.20
2018-07-23T23:50:55.346Z,10.33
2018-07-23T23:53:25.629Z,11.00
2018-07-23T23:55:56.331Z,10.40
2018-07-23T23:58:26.637Z,10.97
